Time;durP1;ratioP1;P1;durP2;ratioP2;P2;SDS_P1;SDS_P2;PMS_P1;PMS_P2;Temp;Humidity;BMP_temperature;BMP_pressure;BME280_temperature;BME280_humidity;BME280_pressure;Samples;Min_cycle;Max_cycle;Signal;HPM_P1;HPM_P2
2022/10/01 00:00:27;;;;;;;13.60;8.55;;;;;;;9.35;100.00;99939.81;5110356;28;20056;-71
2022/10/01 00:02:54;;;;;;;;;;;;;;;9.33;100.00;99933.72;5109545;28;20058;-69
2022/10/01 00:05:21;;;;;;;13.65;9.10;;;;;;;9.34;100.00;99936.31;5109862;28;20436;-72
2022/10/01 00:07:47;;;;;;;14.55;8.70;;;;;;;9.38;100.00;99923.81;5108282;28;20087;-73
2022/10/01 00:10:15;;;;;;;10.93;7.95;;;;;;;9.40;100.00;99928.09;5110162;28;20144;-70
2022/10/01 00:12:47;;;;;;;11.00;8.40;;;;;;;9.47;100.00;99925.97;5109826;28;20662;-72
2022/10/01 00:15:15;;;;;;;11.25;8.25;;;;;;;9.50;100.00;99931.97;5109400;28;20122;-72
2022/10/01 00:17:42;;;;;;;14.43;8.65;;;;;;;9.55;100.00;99931.75;5112634;28;20741;-71
2022/10/01 00:20:10;;;;;;;13.85;9.05;;;;;;;9.51;100.00;99906.41;5112502;28;20097;-71
2022/10/01 00:22:40;;;;;;;13.25;7.47;;;;;;;9.45;100.00;99896.97;5113602;28;20044;-72
2022/10/01 00:25:07;;;;;;;11.40;8.77;;;;;;;9.44;100.00;99886.50;5112918;28;20517;-68
2022/10/01 00:27:34;;;;;;;11.93;8.88;;;;;;;9.36;100.00;99886.03;5112976;28;20336;-71
2022/10/01 00:30:03;;;;;;;10.98;9.07;;;;;;;9.41;100.00;99906.00;5113243;28;20043;-72
2022/10/01 00:32:31;;;;;;;14.27;9.70;;;;;;;9.21;100.00;99882.38;5113761;28;20166;-70
2022/10/01 00:34:59;;;;;;;10.80;8.68;;;;;;;9.25;100.00;99894.50;5113051;28;20051;-70
2022/10/01 00:37:26;;;;;;;17.80;9.65;;;;;;;9.04;100.00;99869.97;5112824;28;20079;-72
2022/10/01 00:39:52;;;;;;;15.95;10.02;;;;;;;8.93;100.00;99851.19;5114201;28;20069;-73
2022/10/01 00:42:23;;;;;;;12.40;9.18;;;;;;;9.12;100.00;99878.41;5102469;28;20051;-73
2022/10/01 00:44:50;;;;;;;12.65;9.45;;;;;;;9.10;100.00;99879.41;5116714;28;20104;-69
2022/10/01 00:47:32;;;;;;;13.60;10.13;;;;;;;9.06;100.00;99875.19;5115146;28;20388;-70
2022/10/01 00:50:06;;;;;;;14.30;10.85;;;;;;;8.97;100.00;99863.28;5113219;28;20047;-72
2022/10/01 00:52:35;;;;;;;13.70;10.10;;;;;;;9.04;100.00;99877.06;5109531;28;20272;-70
2022/10/01 00:55:05;;;;;;;15.57;11.55;;;;;;;9.04;100.00;99877.06;5107432;28;20040;-70
2022/10/01 00:57:33;;;;;;;16.75;11.75;;;;;;;9.00;100.00;99876.34;5112485;28;20101;-69
2022/10/01 01:00:03;;;;;;;14.93;10.82;;;;;;;9.02;100.00;99877.13;5112780;28;20051;-71
2022/10/01 01:02:30;;;;;;;16.95;11.82;;;;;;;9.03;100.00;99870.06;5112507;28;20502;-71
2022/10/01 01:04:58;;;;;;;14.95;11.23;;;;;;;9.06;100.00;99881.34;5112496;28;20100;-72
2022/10/01 01:07:26;;;;;;;16.75;11.45;;;;;;;9.08;100.00;99876.84;5110493;28;20090;-71
2022/10/01 01:09:53;;;;;;;15.90;11.65;;;;;;;8.97;100.00;99854.53;5110136;28;20043;-71
2022/10/01 01:12:46;;;;;;;16.45;11.57;;;;;;;9.09;100.00;99869.75;5112181;28;20048;-71
2022/10/01 01:15:39;;;;;;;15.73;11.23;;;;;;;9.12;100.00;99866.97;5112241;28;20039;-70
2022/10/01 01:18:18;;;;;;;16.55;11.32;;;;;;;9.09;100.00;99859.19;5111704;28;20055;-70
2022/10/01 01:21:23;;;;;;;15.57;11.43;;;;;;;9.06;100.00;99862.84;5112125;28;20237;-70
2022/10/01 01:24:20;;;;;;;16.02;11.23;;;;;;;9.02;100.00;99850.72;5084947;28;20065;-72
2022/10/01 01:27:06;;;;;;;15.00;10.57;;;;;;;9.02;100.00;99855.13;5107825;28;20139;-70
2022/10/01 01:30:00;;;;;;;13.00;10.00;;;;;;;9.06;100.00;99847.00;5112011;28;20158;-70
2022/10/01 01:32:33;;;;;;;17.38;11.05;;;;;;;9.03;100.00;99846.28;5105483;28;20077;-69
2022/10/01 01:35:04;;;;;;;15.65;11.52;;;;;;;9.00;100.00;99841.16;5111820;28;20050;-70
2022/10/01 01:37:36;;;;;;;;;;;;;;;9.00;100.00;99841.16;5111951;28;20054;-70
2022/10/01 01:40:08;;;;;;;18.65;10.80;;;;;;;8.99;100.00;99837.66;5089401;28;19928;-69
2022/10/01 01:42:39;;;;;;;19.77;11.48;;;;;;;8.98;100.00;99835.94;5086396;28;20163;-73
2022/10/01 01:45:11;;;;;;;13.73;10.77;;;;;;;9.05;100.00;99840.00;5089931;28;20052;-70
2022/10/01 01:47:40;;;;;;;16.42;11.48;;;;;;;9.06;100.00;99831.16;5091557;28;20448;-71
2022/10/01 01:50:10;;;;;;;19.90;12.48;;;;;;;9.11;100.00;99830.94;5089758;28;20428;-72
2022/10/01 01:52:37;;;;;;;16.02;12.35;;;;;;;9.08;100.00;99813.44;5091075;28;20562;-70
2022/10/01 01:55:07;;;;;;;18.60;12.25;;;;;;;9.09;100.00;99816.94;5086226;28;20043;-72
2022/10/01 01:57:42;;;;;;;17.95;13.05;;;;;;;9.09;100.00;99812.50;5091316;28;20084;-73
2022/10/01 02:00:11;;;;;;;17.63;11.98;;;;;;;9.07;100.00;99819.66;5091281;28;20040;-74
2022/10/01 02:02:42;;;;;;;14.90;12.05;;;;;;;9.01;100.00;99811.16;5087848;28;20081;-74
2022/10/01 02:05:14;;;;;;;18.85;12.43;;;;;;;9.01;100.00;99813.81;5090758;28;20060;-70
2022/10/01 02:08:02;;;;;;;19.25;12.55;;;;;;;9.00;100.00;99817.38;5090835;28;20169;-70
2022/10/01 02:11:06;;;;;;;19.02;13.20;;;;;;;8.98;100.00;99828.00;5086423;28;20044;-74
2022/10/01 02:13:58;;;;;;;18.92;13.52;;;;;;;8.94;100.00;99822.97;5085841;28;20093;-73
2022/10/01 02:16:25;;;;;;;17.48;13.27;;;;;;;8.87;100.00;99814.50;5090682;28;20066;-72
2022/10/01 02:19:13;;;;;;;17.50;13.05;;;;;;;8.81;100.00;99813.97;5089663;28;20582;-71
2022/10/01 02:22:01;;;;;;;19.85;14.05;;;;;;;8.61;100.00;99794.66;5090937;28;20052;-73
2022/10/01 02:24:38;;;;;;;19.33;13.68;;;;;;;8.71;100.00;99814.38;5085146;28;20428;-75
2022/10/01 02:27:14;;;;;;;18.60;13.82;;;;;;;8.68;100.00;99811.88;5091239;28;20043;-72
2022/10/01 02:29:44;;;;;;;23.50;13.43;;;;;;;8.67;100.00;99801.41;5090975;28;20155;-75
2022/10/01 02:32:12;;;;;;;20.15;13.20;;;;;;;8.73;100.00;99811.69;5089904;28;20057;-74
2022/10/01 02:34:40;;;;;;;17.48;13.18;;;;;;;8.73;100.00;99806.41;5088036;28;20098;-72
2022/10/01 02:37:10;;;;;;;19.33;13.88;;;;;;;8.75;100.00;99810.69;5090331;28;20097;-72
2022/10/01 02:39:40;;;;;;;19.02;13.20;;;;;;;8.75;100.00;99805.41;5099487;28;20083;-73
2022/10/01 02:42:12;;;;;;;18.75;13.73;;;;;;;8.83;100.00;99807.66;5110684;28;20050;-72
2022/10/01 02:44:44;;;;;;;17.65;12.93;;;;;;;8.86;100.00;99806.66;5110699;28;20100;-73
2022/10/01 02:47:27;;;;;;;20.95;13.63;;;;;;;8.88;100.00;99794.22;5110264;28;20067;-76
2022/10/01 02:49:53;;;;;;;18.20;13.20;;;;;;;8.90;100.00;99785.31;5110197;28;20126;-72
2022/10/01 02:52:28;;;;;;;16.05;12.77;;;;;;;8.96;100.00;99792.06;5104714;28;20127;-71
2022/10/01 02:55:00;;;;;;;32.53;13.15;;;;;;;8.98;100.00;99780.47;5096631;28;20475;-72
2022/10/01 02:57:28;;;;;;;15.65;12.48;;;;;;;9.00;100.00;99775.13;5110075;28;20536;-73
2022/10/01 03:00:00;;;;;;;18.05;13.27;;;;;;;9.01;100.00;99779.47;5111450;28;20134;-72
2022/10/01 03:02:30;;;;;;;17.63;13.07;;;;;;;8.93;100.00;99749.97;5111878;28;20139;-72
2022/10/01 03:04:58;;;;;;;19.00;12.67;;;;;;;8.92;100.00;99754.41;5111305;28;20047;-74
2022/10/01 03:07:26;;;;;;;16.08;12.43;;;;;;;9.07;100.00;99773.91;5108145;28;20202;-72
2022/10/01 03:09:53;;;;;;;15.68;12.63;;;;;;;8.98;100.00;99755.84;5111383;28;20047;-74
2022/10/01 03:12:22;;;;;;;17.35;12.68;;;;;;;9.02;100.00;99765.34;5110171;28;20063;-74
2022/10/01 03:14:49;;;;;;;17.25;12.73;;;;;;;9.03;100.00;99774.97;5110279;28;20057;-71
2022/10/01 03:17:16;;;;;;;18.85;13.35;;;;;;;9.02;100.00;99760.06;5109713;28;20048;-72
2022/10/01 03:19:42;;;;;;;15.40;12.75;;;;;;;9.03;100.00;99757.34;5109934;28;20048;-71
2022/10/01 03:22:13;;;;;;;20.70;12.50;;;;;;;9.03;100.00;99756.50;5109739;28;20130;-72
2022/10/01 03:24:40;;;;;;;16.98;12.45;;;;;;;9.06;100.00;99746.63;5110212;28;20122;-70
2022/10/01 03:27:06;;;;;;;15.23;11.93;;;;;;;9.14;100.00;99746.22;5107406;28;20409;-72
2022/10/01 03:29:33;;;;;;;15.38;11.70;;;;;;;9.27;100.00;99749.13;5109783;28;20047;-72
2022/10/01 03:31:59;;;;;;;13.13;10.13;;;;;;;9.40;100.00;99756.31;5110096;28;20704;-70
2022/10/01 03:34:26;;;;;;;14.25;10.18;;;;;;;9.40;100.00;99729.91;5109735;28;20428;-71
2022/10/01 03:36:53;;;;;;;14.82;10.73;;;;;;;9.57;100.00;99746.66;5109379;28;20070;-72
2022/10/01 03:39:19;;;;;;;12.90;10.20;;;;;;;9.56;100.00;99735.22;5097746;28;20055;-73
2022/10/01 03:41:46;;;;;;;14.10;10.88;;;;;;;9.60;100.00;99741.22;5109884;28;20356;-73
2022/10/01 03:44:13;;;;;;;12.73;10.23;;;;;;;9.43;100.00;99719.16;5110240;28;20039;-75
2022/10/01 03:46:39;;;;;;;14.60;10.40;;;;;;;9.55;100.00;99752.00;5110579;28;20472;-79
2022/10/01 03:49:06;;;;;;;14.13;10.60;;;;;;;9.52;100.00;99735.47;5110366;28;20130;-77
2022/10/01 03:51:34;;;;;;;14.43;10.43;;;;;;;9.58;100.00;99748.34;5109770;28;20474;-77
2022/10/01 03:54:04;;;;;;;12.07;9.90;;;;;;;9.58;100.00;99745.72;5114298;28;20051;-76
2022/10/01 03:56:30;;;;;;;20.08;11.45;;;;;;;9.55;100.00;99743.22;5113682;28;20111;-77
2022/10/01 03:58:57;;;;;;;13.85;10.10;;;;;;;9.52;100.00;99731.03;5114033;28;20078;-77
2022/10/01 04:01:24;;;;;;;13.35;10.27;;;;;;;9.34;100.00;99706.44;5114721;28;20068;-73
2022/10/01 04:03:51;;;;;;;13.90;10.02;;;;;;;9.50;100.00;99731.09;5114592;28;20062;-75
2022/10/01 04:06:18;;;;;;;14.18;10.82;;;;;;;9.52;100.00;99733.66;5114640;28;20067;-77
2022/10/01 04:08:44;;;;;;;15.88;10.48;;;;;;;9.52;100.00;99732.81;5114756;28;20047;-78
2022/10/01 04:11:11;;;;;;;14.05;10.68;;;;;;;9.55;100.00;99733.50;5107394;28;20044;-81
2022/10/01 04:13:38;;;;;;;12.88;10.10;;;;;;;9.56;100.00;99729.09;5113108;28;20050;-80
2022/10/01 04:16:05;;;;;;;13.32;9.98;;;;;;;9.43;100.00;99715.66;5116008;28;20518;-77
2022/10/01 04:18:33;;;;;;;12.60;10.43;;;;;;;9.45;100.00;99727.84;5119392;28;20047;-73
2022/10/01 04:21:00;;;;;;;11.32;9.38;;;;;;;9.52;100.00;99728.38;5116869;28;20055;-76
2022/10/01 04:23:26;;;;;;;11.68;9.50;;;;;;;9.39;100.00;99708.84;5116307;28;20059;-78
2022/10/01 04:25:53;;;;;;;14.93;9.38;;;;;;;9.49;100.00;99723.25;5115932;28;20055;-73
2022/10/01 04:28:19;;;;;;;13.00;9.50;;;;;;;9.54;100.00;99725.66;5114512;28;20394;-79
2022/10/01 04:30:46;;;;;;;14.98;9.77;;;;;;;9.47;100.00;99715.41;5110415;28;20047;-75
2022/10/01 04:33:15;;;;;;;10.60;8.65;;;;;;;9.48;100.00;99721.53;5113974;28;20071;-75
2022/10/01 04:35:42;;;;;;;11.90;8.88;;;;;;;9.47;100.00;99709.25;5113457;28;20043;-73
2022/10/01 04:38:15;;;;;;;11.63;8.77;;;;;;;9.33;100.00;99683.56;5114160;28;20410;-74
2022/10/01 04:40:42;;;;;;;12.80;9.10;;;;;;;9.52;100.00;99701.94;5114101;28;20155;-74
2022/10/01 04:43:11;;;;;;;11.88;9.43;;;;;;;9.47;100.00;99699.53;5114360;28;20123;-75
2022/10/01 04:45:37;;;;;;;14.68;9.15;;;;;;;9.28;100.00;99661.84;5113029;28;20078;-75
2022/10/01 04:48:04;;;;;;;12.98;8.80;;;;;;;9.54;100.00;99686.88;5113382;28;20221;-72
2022/10/01 04:50:31;;;;;;;11.70;8.98;;;;;;;9.54;100.00;99694.78;5113424;28;20726;-79
2022/10/01 04:52:58;;;;;;;11.02;8.40;;;;;;;9.50;100.00;99686.19;5116437;28;20383;-80
2022/10/01 04:55:25;;;;;;;11.40;8.88;;;;;;;9.53;100.00;99687.81;5116317;28;20138;-77
2022/10/01 04:57:52;;;;;;;10.68;8.55;;;;;;;9.57;100.00;99675.28;5115588;28;20128;-80
2022/10/01 05:00:21;;;;;;;11.95;8.40;;;;;;;9.30;100.00;99649.38;5114648;28;20477;-77
2022/10/01 05:02:48;;;;;;;10.50;8.32;;;;;;;9.49;100.00;99676.53;5112955;28;20413;-77
2022/10/01 05:05:17;;;;;;;10.57;8.13;;;;;;;9.45;100.00;99666.19;5114069;28;20048;-72
2022/10/01 05:07:44;;;;;;;12.80;8.68;;;;;;;9.43;100.00;99665.47;5114078;28;20055;-77
2022/10/01 05:10:13;;;;;;;10.80;8.55;;;;;;;9.46;100.00;99665.28;5105959;28;20063;-78
2022/10/01 05:12:41;;;;;;;10.83;8.37;;;;;;;9.43;100.00;99649.59;5113698;28;20143;-77
2022/10/01 05:15:09;;;;;;;11.40;8.88;;;;;;;9.44;100.00;99646.84;5112604;28;20062;-75
2022/10/01 05:17:35;;;;;;;16.05;8.20;;;;;;;9.37;100.00;99623.50;5109465;28;20414;-77
2022/10/01 05:20:04;;;;;;;12.68;8.02;;;;;;;9.53;100.00;99644.66;5112790;28;20134;-72
2022/10/01 05:22:31;;;;;;;11.38;8.65;;;;;;;9.43;100.00;99639.03;5113198;28;20082;-76
2022/10/01 05:24:59;;;;;;;9.80;7.90;;;;;;;9.49;100.00;99644.81;5112942;28;20129;-71
2022/10/01 05:27:26;;;;;;;10.48;8.07;;;;;;;9.46;100.00;99644.13;5112466;28;20146;-76
2022/10/01 05:29:53;;;;;;;11.13;8.23;;;;;;;9.47;100.00;99645.84;5112183;28;20043;-72
2022/10/01 05:32:19;;;;;;;12.05;8.70;;;;;;;9.45;100.00;99656.50;5112022;28;20044;-75
2022/10/01 05:34:46;;;;;;;12.57;7.50;;;;;;;9.55;100.00;99654.22;5109002;28;20052;-73
2022/10/01 05:37:18;;;;;;;12.85;8.27;;;;;;;9.43;100.00;99639.88;5108248;28;20127;-77
2022/10/01 05:39:45;;;;;;;12.40;8.40;;;;;;;9.32;100.00;99621.09;5112013;28;20139;-73
2022/10/01 05:42:12;;;;;;;9.55;8.02;;;;;;;9.48;100.00;99663.41;5112387;28;20047;-73
2022/10/01 05:44:44;;;;;;;12.40;8.60;;;;;;;9.48;100.00;99663.41;5112223;28;20055;-75
2022/10/01 05:47:12;;;;;;;9.70;7.57;;;;;;;9.44;100.00;99654.78;5111997;28;20527;-72
2022/10/01 05:49:43;;;;;;;9.57;7.60;;;;;;;9.50;100.00;99659.75;5112916;28;20089;-76
2022/10/01 05:52:10;;;;;;;12.48;8.73;;;;;;;9.43;100.00;99649.59;5112452;28;20080;-77
2022/10/01 05:54:37;;;;;;;10.93;7.70;;;;;;;9.45;100.00;99643.28;5113025;28;20052;-75
2022/10/01 05:57:04;;;;;;;11.40;6.88;;;;;;;9.49;100.00;99654.53;5112173;28;20052;-77
2022/10/01 05:59:31;;;;;;;10.60;7.72;;;;;;;9.42;100.00;99638.19;5112257;28;20507;-73
2022/10/01 06:01:58;;;;;;;11.73;7.47;;;;;;;9.57;100.00;99654.13;5112834;28;20074;-79
2022/10/01 06:04:25;;;;;;;10.43;7.75;;;;;;;9.53;100.00;99648.16;5112387;28;20054;-73
2022/10/01 06:06:55;;;;;;;11.13;7.93;;;;;;;9.52;100.00;99650.88;5095653;28;20427;-75
2022/10/01 06:09:21;;;;;;;8.75;7.00;;;;;;;9.47;100.00;99644.06;5112144;28;20540;-75
2022/10/01 06:11:48;;;;;;;9.43;7.45;;;;;;;9.47;100.00;99633.47;5112595;28;20556;-77
2022/10/01 06:14:15;;;;;;;10.02;7.28;;;;;;;9.43;100.00;99626.69;5112282;28;20057;-71
2022/10/01 06:16:42;;;;;;;10.40;7.25;;;;;;;9.55;100.00;99632.22;5112051;28;20044;-76
2022/10/01 06:19:09;;;;;;;10.60;7.40;;;;;;;9.54;100.00;99620.78;5112405;28;20051;-77
2022/10/01 06:21:35;;;;;;;10.55;7.00;;;;;;;9.56;100.00;99616.28;5099266;28;20547;-75
2022/10/01 06:24:03;;;;;;;9.88;7.22;;;;;;;9.58;100.00;99605.63;5112182;28;20116;-78
2022/10/01 06:26:30;;;;;;;8.27;6.72;;;;;;;9.59;100.00;99592.31;5110996;28;20059;-77
2022/10/01 06:28:58;;;;;;;11.00;6.85;;;;;;;9.62;100.00;99572.78;5102742;28;20044;-75
2022/10/01 06:31:24;;;;;;;8.77;7.13;;;;;;;9.62;100.00;99568.34;5112285;28;20057;-72
2022/10/01 06:33:51;;;;;;;9.75;7.50;;;;;;;9.60;100.00;99578.16;5112189;28;20106;-79
2022/10/01 06:36:17;;;;;;;9.43;6.95;;;;;;;9.59;100.00;99594.13;5112142;28;20075;-73
2022/10/01 06:38:48;;;;;;;9.27;6.72;;;;;;;9.60;100.00;99593.19;5111272;28;20063;-75
2022/10/01 06:41:14;;;;;;;9.20;7.10;;;;;;;9.61;100.00;99597.50;5111023;28;20039;-72
2022/10/01 06:43:42;;;;;;;9.77;7.00;;;;;;;9.57;100.00;99591.56;5112647;28;20629;-78
2022/10/01 06:46:09;;;;;;;9.25;7.10;;;;;;;9.58;100.00;99601.19;5112491;28;20059;-72
2022/10/01 06:48:36;;;;;;;9.45;7.10;;;;;;;9.56;100.00;99603.06;5089092;28;20051;-76
2022/10/01 06:51:04;;;;;;;7.93;7.03;;;;;;;9.59;100.00;99607.34;5112469;28;20051;-76
2022/10/01 06:53:31;;;;;;;9.18;7.07;;;;;;;9.61;100.00;99603.63;5113873;28;20104;-81
2022/10/01 06:56:04;;;;;;;15.02;7.28;;;;;;;9.55;100.00;99587.28;5112570;28;20468;-74
2022/10/01 06:58:30;;;;;;;8.68;7.20;;;;;;;9.65;100.00;99591.13;5109744;28;20063;-76
2022/10/01 07:01:00;;;;;;;9.73;6.60;;;;;;;9.57;100.00;99548.41;5111715;28;20051;-78
2022/10/01 07:03:27;;;;;;;8.88;6.47;;;;;;;9.72;100.00;99550.19;5111372;28;20058;-80
2022/10/01 07:06:00;;;;;;;9.82;7.20;;;;;;;9.77;100.00;99529.59;5110064;28;20050;-75
2022/10/01 07:08:26;;;;;;;7.95;6.43;;;;;;;9.73;100.00;99533.38;5110787;28;20052;-78
2022/10/01 07:10:58;;;;;;;9.73;7.07;;;;;;;9.75;100.00;99547.38;5110371;28;20047;-72
2022/10/01 07:13:25;;;;;;;11.70;6.57;;;;;;;9.78;100.00;99544.53;5106810;28;20050;-76
2022/10/01 07:15:51;;;;;;;9.30;6.63;;;;;;;9.80;100.00;99543.50;5111246;28;20048;-79
2022/10/01 07:18:18;;;;;;;8.88;6.47;;;;;;;9.80;100.00;99543.50;5110156;28;20145;-73
2022/10/01 07:20:45;;;;;;;8.43;6.30;;;;;;;9.80;100.00;99555.88;5110573;28;20057;-74
2022/10/01 07:23:13;;;;;;;8.57;6.13;;;;;;;9.72;100.00;99558.13;5110707;28;20093;-72
2022/10/01 07:25:41;;;;;;;9.00;6.93;;;;;;;9.73;100.00;99546.59;5110587;28;20055;-77
2022/10/01 07:28:15;;;;;;;10.18;6.95;;;;;;;9.75;100.00;99537.66;5115235;28;20048;-75
2022/10/01 07:30:47;;;;;;;9.02;6.82;;;;;;;9.76;100.00;99575.50;5110834;28;20071;-76
2022/10/01 07:33:17;;;;;;;8.18;6.72;;;;;;;9.72;100.00;99584.56;5114555;28;20043;-74
2022/10/01 07:35:46;;;;;;;8.38;6.63;;;;;;;9.63;100.00;99593.84;5114732;28;20050;-75
2022/10/01 07:38:13;;;;;;;9.68;6.65;;;;;;;9.59;100.00;99580.91;5113637;28;20592;-74
2022/10/01 07:40:40;;;;;;;8.13;6.63;;;;;;;9.66;100.00;99576.97;5113695;27;20047;-72
2022/10/01 07:43:07;;;;;;;8.82;7.10;;;;;;;9.68;100.00;99562.72;5114149;28;20047;-75
2022/10/01 07:45:34;;;;;;;9.77;7.25;;;;;;;9.55;100.00;99522.06;5106958;28;20071;-73
2022/10/01 07:48:02;;;;;;;7.82;6.72;;;;;;;9.54;100.00;99524.78;5111512;28;20353;-74
2022/10/01 07:50:29;;;;;;;9.68;6.40;;;;;;;9.74;100.00;99559.75;5109784;28;20126;-74
2022/10/01 07:52:57;;;;;;;9.60;6.93;;;;;;;9.77;100.00;99572.75;5113835;28;20059;-74
2022/10/01 07:55:27;;;;;;;7.80;6.55;;;;;;;9.80;100.00;99567.31;5113925;28;20048;-75
2022/10/01 07:57:56;;;;;;;10.55;6.45;;;;;;;9.67;100.00;99513.44;5113477;28;20530;-74
2022/10/01 08:00:24;;;;;;;9.88;6.95;;;;;;;9.74;100.00;99540.38;5113312;28;20040;-77
2022/10/01 08:02:54;;;;;;;7.18;6.30;;;;;;;9.86;100.00;99576.69;5113586;28;20035;-74
2022/10/01 08:05:27;;;;;;;7.85;6.68;;;;;;;9.81;100.00;99569.00;5111701;28;20054;-73
2022/10/01 08:08:12;;;;;;;8.50;6.35;;;;;;;9.85;100.00;99556.47;5112507;28;20516;-76
2022/10/01 08:10:40;;;;;;;9.27;6.47;;;;;;;9.90;100.00;99550.94;5112686;28;20403;-74
2022/10/01 08:13:14;;;;;;;7.78;6.35;;;;;;;9.96;100.00;99566.44;5113353;28;20134;-71
2022/10/01 08:15:44;;;;;;;7.38;6.00;;;;;;;9.94;100.00;99577.09;5112727;28;20119;-71
2022/10/01 08:18:11;;;;;;;7.85;6.43;;;;;;;9.93;100.00;99583.31;5113824;28;20143;-73
2022/10/01 08:20:38;;;;;;;7.10;6.40;;;;;;;9.92;100.00;99584.25;5113007;28;20521;-69
2022/10/01 08:23:07;;;;;;;10.45;6.32;;;;;;;9.95;100.00;99575.31;5104904;28;21288;-73
2022/10/01 08:25:34;;;;;;;7.43;6.20;;;;;;;9.96;100.00;99561.13;5111956;28;20278;-73
2022/10/01 08:28:01;;;;;;;8.93;6.75;;;;;;;9.97;100.00;99571.63;5113278;28;20470;-74
2022/10/01 08:30:28;;;;;;;8.48;6.40;;;;;;;9.81;100.00;99549.66;5112626;28;20055;-71
2022/10/01 08:32:56;;;;;;;8.63;6.43;;;;;;;9.83;100.00;99566.28;5112391;28;20044;-69
2022/10/01 08:35:23;;;;;;;10.18;6.13;;;;;;;9.84;100.00;99579.41;5112830;28;20082;-72
2022/10/01 08:37:51;;;;;;;8.93;6.43;;;;;;;9.84;100.00;99571.50;5112327;28;20043;-72
2022/10/01 08:40:20;;;;;;;8.77;6.72;;;;;;;9.82;100.00;99593.66;5108922;28;20067;-73
2022/10/01 08:43:16;;;;;;;10.48;7.10;;;;;;;9.79;100.00;99625.56;5112850;28;20096;-71
2022/10/01 08:45:50;;;;;;;9.45;6.75;;;;;;;9.80;100.00;99628.13;5111756;28;20123;-70
2022/10/01 08:48:32;;;;;;;9.70;7.25;;;;;;;9.80;100.00;99627.28;5112925;28;20402;-70
2022/10/01 08:51:09;;;;;;;10.15;7.68;;;;;;;9.77;100.00;99628.28;5112764;28;20089;-69
2022/10/01 08:53:45;;;;;;;12.55;8.23;;;;;;;9.76;100.00;99628.38;5113317;28;20083;-71
2022/10/01 08:56:30;;;;;;;10.73;8.35;;;;;;;9.75;100.00;99619.63;5109256;28;20387;-70
2022/10/01 08:59:01;;;;;;;10.93;8.35;;;;;;;9.78;100.00;99618.56;5112872;28;20047;-70
2022/10/01 09:01:28;;;;;;;11.25;8.48;;;;;;;9.86;100.00;99621.66;5112914;28;20047;-71
2022/10/01 09:03:57;;;;;;;11.32;7.82;;;;;;;9.92;100.00;99629.22;5112229;28;20408;-72
2022/10/01 09:06:26;;;;;;;11.40;7.55;;;;;;;9.92;100.00;99629.22;5105867;28;20043;-71
2022/10/01 09:09:42;;;;;;;10.70;7.32;;;;;;;10.03;100.00;99628.63;5112414;28;20082;-73
2022/10/01 09:12:26;;;;;;;10.27;6.97;;;;;;;10.10;100.00;99607.00;5081682;28;20055;-71
2022/10/01 09:15:04;;;;;;;10.75;6.18;;;;;;;10.23;100.00;99614.31;5112688;28;20098;-71
2022/10/01 09:17:57;;;;;;;9.88;6.30;;;;;;;10.24;100.00;99619.47;5110949;28;20058;-71
2022/10/01 09:20:37;;;;;;;6.63;5.18;;;;;;;10.32;100.00;99621.69;5111974;28;20055;-75
2022/10/01 09:23:30;;;;;;;7.05;5.30;;;;;;;10.37;100.00;99611.69;5112207;28;20484;-70
2022/10/01 09:25:58;;;;;;;6.47;4.88;;;;;;;10.36;100.00;99620.59;5110000;28;20048;-74
2022/10/01 09:28:29;;;;;;;6.75;5.05;;;;;;;10.38;100.00;99624.84;5109127;28;20055;-74
2022/10/01 09:31:13;;;;;;;6.55;5.65;;;;;;;10.42;100.00;99620.19;5112435;28;20144;-69
2022/10/01 09:33:57;;;;;;;7.18;5.15;;;;;;;10.45;100.00;99612.09;5112170;28;20116;-72
2022/10/01 09:36:38;;;;;;;7.57;5.00;;;;;;;10.47;100.00;99623.44;5107848;28;20050;-74
2022/10/01 09:39:18;;;;;;;6.28;4.35;;;;;;;10.45;100.00;99622.69;5112076;28;20181;-79
2022/10/01 09:41:45;;;;;;;5.90;4.47;;;;;;;10.40;100.00;99611.50;5111526;28;20082;-69
2022/10/01 09:44:16;;;;;;;5.88;4.82;;;;;;;10.43;100.00;99611.31;5105139;28;20100;-70
2022/10/01 09:46:45;;;;;;;8.05;5.03;;;;;;;10.45;100.00;99617.38;5110036;28;20136;-73
2022/10/01 09:49:30;;;;;;;6.55;4.70;;;;;;;10.49;100.00;99617.13;5111481;28;20063;-72
2022/10/01 09:52:05;;;;;;;8.15;5.00;;;;;;;10.47;100.00;99612.84;5112010;28;20130;-73
2022/10/01 09:54:41;;;;;;;6.68;5.00;;;;;;;10.52;100.00;99613.44;5111695;28;20105;-73
2022/10/01 09:57:13;;;;;;;6.75;5.13;;;;;;;10.62;100.00;99616.38;5111119;28;20431;-71
2022/10/01 10:00:03;;;;;;;6.75;4.85;;;;;;;10.64;100.00;99612.72;5110143;28;20112;-71
2022/10/01 10:02:46;;;;;;;7.25;4.93;;;;;;;10.68;100.00;99624.84;5107597;28;20069;-71
2022/10/01 10:05:23;;;;;;;7.78;5.25;;;;;;;10.75;100.00;99625.31;5103144;28;20062;-71
2022/10/01 10:08:09;;;;;;;7.28;5.22;;;;;;;10.60;100.00;99594.44;5110262;28;20477;-73
2022/10/01 10:10:38;;;;;;;5.25;4.32;;;;;;;10.80;100.00;99621.44;5111444;28;20079;-74
2022/10/01 10:13:25;;;;;;;7.95;4.90;;;;;;;10.78;100.00;99623.34;5111418;28;20043;-73
2022/10/01 10:15:57;;;;;;;6.15;5.18;;;;;;;10.78;100.00;99614.53;5106011;28;20594;-74
2022/10/01 10:18:35;;;;;;;5.47;4.60;;;;;;;10.82;100.00;99611.63;5111526;28;20507;-72
2022/10/01 10:21:06;;;;;;;5.95;4.72;;;;;;;11.00;100.00;99627.34;5111517;28;20050;-74
2022/10/01 10:23:34;;;;;;;6.38;4.30;;;;;;;11.04;100.00;99629.69;5111337;28;20048;-70
2022/10/01 10:26:06;;;;;;;7.18;4.43;;;;;;;11.05;100.00;99619.94;5111163;28;20048;-70
2022/10/01 10:28:41;;;;;;;4.47;3.90;;;;;;;11.04;100.00;99623.53;5111322;28;20055;-73
2022/10/01 10:31:14;;;;;;;5.70;3.80;;;;;;;11.06;100.00;99626.94;5111286;28;20548;-70
2022/10/01 10:33:52;;;;;;;5.07;4.38;;;;;;;11.10;100.00;99639.06;5102485;28;20051;-71
2022/10/01 10:36:32;;;;;;;4.67;4.00;;;;;;;11.11;100.00;99630.19;5105971;28;20488;-71
2022/10/01 10:39:02;;;;;;;6.95;4.55;;;;;;;11.13;100.00;99621.19;5111134;28;20091;-71
2022/10/01 10:41:29;;;;;;;6.22;4.10;;;;;;;11.12;100.00;99616.84;5108708;28;20071;-72
2022/10/01 10:43:59;;;;;;;6.90;4.70;;;;;;;11.16;100.00;99625.47;5111342;28;20418;-71
2022/10/01 10:46:36;;;;;;;5.03;3.97;;;;;;;11.11;100.00;99615.13;5092090;28;20134;-73
2022/10/01 10:49:06;;;;;;;3.50;3.20;;;;;;;11.15;100.00;99623.75;5109165;28;20063;-74
2022/10/01 10:51:43;;;;;;;4.60;3.72;;;;;;;11.14;100.00;99614.09;5107975;28;20138;-72
2022/10/01 10:54:18;;;;;;;3.42;2.85;;;;;;;11.01;100.00;99611.34;5111106;28;20093;-72
2022/10/01 10:56:59;;;;;;;4.05;3.40;;;;;;;11.04;100.00;99623.53;5110293;28;20048;-76
2022/10/01 10:59:26;;;;;;;4.57;3.40;;;;;;;11.09;100.00;99624.13;5107513;28;20078;-73
2022/10/01 11:01:53;;;;;;;5.30;3.70;;;;;;;11.28;100.00;99621.19;5109384;28;20057;-73
2022/10/01 11:04:36;;;;;;;5.07;3.55;;;;;;;11.41;100.00;99616.81;5110031;28;20047;-69
2022/10/01 11:07:04;;;;;;;3.55;3.00;;;;;;;11.53;100.00;99622.19;5100927;28;20463;-72
2022/10/01 11:09:59;;;;;;;4.20;2.90;;;;;;;11.55;100.00;99624.75;5109000;28;20075;-74
2022/10/01 11:12:42;;;;;;;3.53;2.58;;;;;;;11.51;100.00;99636.50;5106922;28;20052;-72
2022/10/01 11:15:28;;;;;;;4.22;3.45;;;;;;;11.53;100.00;99632.81;5110006;28;20062;-69
2022/10/01 11:18:02;;;;;;;4.97;3.50;;;;;;;11.61;100.00;99635.00;5109857;28;20057;-71
2022/10/01 11:20:53;;;;;;;7.47;2.88;;;;;;;11.59;100.00;99635.09;5107169;28;20466;-71
2022/10/01 11:23:42;;;;;;;6.65;3.60;;;;;;;11.63;100.00;99637.56;5089986;28;20702;-70
2022/10/01 11:26:32;;;;;;;5.85;3.25;;;;;;;11.42;100.00;99627.34;5108322;28;20043;-71
2022/10/01 11:29:08;;;;;;;3.20;2.80;;;;;;;11.44;100.00;99651.09;5110516;28;20452;-72
2022/10/01 11:31:51;;;;;;;3.85;3.00;;;;;;;11.32;100.00;99625.38;5110133;28;20130;-71
2022/10/01 11:34:39;;;;;;;5.50;3.67;;;;;;;11.56;100.00;99647.69;5102935;28;20109;-73
2022/10/01 11:37:51;;;;;;;3.60;3.30;;;;;;;11.59;100.00;99663.41;5110080;28;20059;-74
2022/10/01 11:40:32;;;;;;;2.85;2.55;;;;;;;11.49;100.00;99649.84;5098258;28;20066;-73
2022/10/01 11:43:11;;;;;;;3.40;3.10;;;;;;;11.50;100.00;99654.19;5107769;28;20051;-75
2022/10/01 11:45:46;;;;;;;4.10;3.15;;;;;;;11.45;100.00;99658.09;5110752;28;20062;-74